Aérodrome :
LOGIN :

S'inscrire | Disclaimer

   EN    FR    IT 

 










Légende :    VFR   VFR Marginal   IFR   IFR Intensif   IFR Très Intensif
Visi : 
Plafond : 
>= 8 km
>= 3000ft
5 à 8 km
1000 à 3000 ft
1500m à 5 km
500 à 1000 ft
800 à 1500m
200 à 500 ft
< 800m
< 200 ft
Symboles :   Orages  Brouillard  Fortes neiges  Fortes précipitations  Vent > 20 kt
SIGMETs :   Divers  Orages  Givrage  Turbulence  Onde Orograph.  Cendres Volcan.






- Altitude de l'aérodrome : 39 ft
- Code IATA : TRS


LIPQ - Friuli Venezia Giulia Apt. Trieste

DERNIER METAR :
  • 120620Z 03003KT 340V080 7000 -RA SCT040 BKN060 11/10 Q1005 RERA

METARs EXPIRÉS :
  • 120550Z 05005KT 020V090 9000 RA SCT040 BKN060 11/10 Q1005
  • 120520Z 04005KT 9999 -RA FEW040 BKN060 11/10 Q1005
  • 120450Z AUTO 07005KT 040V100 9999 -RA OVC065/// 11/10 Q1005 RERA
  • 120420Z AUTO 09009KT 9999 RA BKN031/// OVC064/// 11/10 Q1005
  • 120350Z AUTO 03003KT 360V060 9999 FEW038/// BKN056/// BKN086/// 11/09 Q1006

TAF TAF LIPQ
Valide du 12 à 06h jusqu'au 13 à 06h UTC


120500Z 1206/1306 04008KT 4000 RA BKN020 BKN050
BECMG 1212/1215 06018KT
TEMPO 1215/1221 3000 TSRA



MET'MAP, la Météo Aéronautique d'un coup d'oeil ! - Copyright ORBIFLY Décembre 2007 - Disclaimer

ORBIFLY MET'MAP TEAM :

Programmation & Développement : Alexandra Zaïnal
Conception & Développement : Baudouin d'Aumeries
Co-Programmation & Développement : Marc-Olivier Méhu
Soutien technique & logistique : Manuel Goepfert

Contact : metmap@orbifly.com




SOURCES & CREDITS :

   NOAA